Time;durP1;ratioP1;P1;durP2;ratioP2;P2;SDS_P1;SDS_P2;PMS_P1;PMS_P2;Temp;Humidity;BMP_temperature;BMP_pressure;BME280_temperature;BME280_humidity;BME280_pressure;Samples;Min_cycle;Max_cycle;Signal;HPM_P1;HPM_P2
2021/11/10 00:02:24;;;;;;;2.45;2.00;;;24.10;38.70;;;;;;1784449;80;21088;-10
2021/11/10 00:04:52;;;;;;;3.08;2.20;;;24.10;38.60;;;;;;1784411;80;21154;-10
2021/11/10 00:07:20;;;;;;;2.65;1.92;;;24.20;38.30;;;;;;1784504;80;21147;-10
2021/11/10 00:09:47;;;;;;;2.37;2.00;;;24.10;38.40;;;;;;1784459;80;21563;-10
2021/11/10 00:12:15;;;;;;;3.10;1.85;;;24.10;38.40;;;;;;1784483;80;21510;-10
2021/11/10 00:14:42;;;;;;;2.02;1.77;;;24.10;38.60;;;;;;1784442;80;21076;-10
2021/11/10 00:17:10;;;;;;;1.75;1.65;;;24.10;38.60;;;;;;1784446;80;21084;-10
2021/11/10 00:19:37;;;;;;;2.50;2.10;;;24.10;38.40;;;;;;1784390;80;21088;-10
2021/11/10 00:22:05;;;;;;;2.85;2.30;;;24.10;38.30;;;;;;1784437;80;21143;-10
2021/11/10 00:24:32;;;;;;;2.35;2.00;;;24.10;38.20;;;;;;1784476;80;21539;-10
2021/11/10 00:27:00;;;;;;;2.15;1.72;;;24.10;38.40;;;;;;1784454;79;21198;-10
2021/11/10 00:29:29;;;;;;;3.80;2.37;;;24.10;38.60;;;;;;1784460;80;21088;-10
2021/11/10 00:31:56;;;;;;;2.30;1.98;;;24.10;38.40;;;;;;1784331;80;21091;-10
2021/11/10 00:34:24;;;;;;;2.37;1.85;;;24.10;38.20;;;;;;1784457;80;21576;-10
2021/11/10 00:36:51;;;;;;;2.08;1.87;;;24.10;38.30;;;;;;1784547;80;21612;-10
2021/11/10 00:39:19;;;;;;;3.70;1.90;;;24.10;38.60;;;;;;1784425;80;21613;-10
2021/11/10 00:41:47;;;;;;;2.27;1.77;;;24.10;38.70;;;;;;1784401;80;21553;-10
2021/11/10 00:44:15;;;;;;;2.10;1.90;;;24.10;38.50;;;;;;1792674;78;21528;-10
2021/11/10 00:46:42;;;;;;;2.37;1.90;;;24.10;38.50;;;;;;1796047;80;21599;-10
2021/11/10 00:49:10;;;;;;;2.58;2.12;;;24.10;38.40;;;;;;1796084;80;21092;-10
2021/11/10 00:51:37;;;;;;;2.02;1.70;;;24.10;38.50;;;;;;1796145;80;21569;-10
2021/11/10 00:54:04;;;;;;;2.55;1.75;;;24.10;38.70;;;;;;1796051;80;21541;-10
2021/11/10 00:56:32;;;;;;;2.58;2.08;;;24.10;38.70;;;;;;1796099;80;21158;-10
2021/11/10 00:59:00;;;;;;;2.37;2.02;;;24.10;38.50;;;;;;1796053;80;21474;-10
2021/11/10 01:01:28;;;;;;;2.65;2.10;;;24.10;38.40;;;;;;1796050;80;21206;-10
2021/11/10 01:03:55;;;;;;;4.55;1.98;;;24.10;38.40;;;;;;1796067;80;21052;-10
2021/11/10 01:06:23;;;;;;;3.92;2.10;;;24.10;38.60;;;;;;1796126;80;21091;-10
2021/11/10 01:08:52;;;;;;;2.58;2.10;;;24.10;38.80;;;;;;1796091;80;21068;-10
2021/11/10 01:11:20;;;;;;;2.12;1.92;;;24.10;38.60;;;;;;1796082;79;21482;-10
2021/11/10 01:13:48;;;;;;;2.37;1.90;;;24.10;38.50;;;;;;1796039;80;21070;-10
2021/11/10 01:16:15;;;;;;;2.40;1.95;;;24.10;38.50;;;;;;1796085;80;21583;-10
2021/11/10 01:18:43;;;;;;;2.98;1.98;;;24.10;38.80;;;;;;1796138;80;21520;-10
2021/11/10 01:21:10;;;;;;;3.08;2.02;;;24.10;38.90;;;;;;1795986;80;21151;-10
2021/11/10 01:23:38;;;;;;;1.98;1.80;;;24.10;38.70;;;;;;1796062;80;21067;-10
2021/11/10 01:26:05;;;;;;;2.70;2.00;;;24.10;38.50;;;;;;1796026;79;21603;-10
2021/11/10 01:28:33;;;;;;;2.35;1.92;;;24.10;38.40;;;;;;1796011;80;21092;-10
2021/11/10 01:31:00;;;;;;;1.70;1.52;;;24.10;38.50;;;;;;1796154;80;21154;-10
2021/11/10 01:33:27;;;;;;;2.65;2.10;;;24.10;38.80;;;;;;1796065;80;21088;-10
2021/11/10 01:35:55;;;;;;;2.05;1.75;;;24.10;38.70;;;;;;1796093;80;21538;-10
2021/11/10 01:38:22;;;;;;;2.55;1.90;;;24.10;38.50;;;;;;1796023;80;21490;-10
2021/11/10 01:40:50;;;;;;;2.40;1.62;;;24.10;38.60;;;;;;1795994;80;21485;-10
2021/11/10 01:43:17;;;;;;;2.45;1.98;;;24.10;38.90;;;;;;1794516;77;21567;-10
2021/11/10 01:45:46;;;;;;;2.00;1.72;;;24.10;38.90;;;;;;1784413;80;21146;-10
2021/11/10 01:48:14;;;;;;;3.45;2.25;;;24.10;38.60;;;;;;1784546;79;21092;-10
2021/11/10 01:50:42;;;;;;;2.25;1.80;;;24.10;38.60;;;;;;1784433;80;21542;-10
2021/11/10 01:53:09;;;;;;;2.20;1.95;;;24.10;38.50;;;;;;1784423;80;21068;-10
2021/11/10 01:55:37;;;;;;;2.00;1.70;;;24.10;38.80;;;;;;1784479;80;21505;-10
2021/11/10 01:58:05;;;;;;;2.33;1.80;;;24.10;38.60;;;;;;1784543;80;21497;-10
2021/11/10 02:00:34;;;;;;;2.80;2.17;;;24.10;38.60;;;;;;1784373;80;21072;-10
2021/11/10 02:03:01;;;;;;;2.30;1.70;;;24.10;38.50;;;;;;1784410;80;21104;-10
2021/11/10 02:05:29;;;;;;;2.08;1.70;;;24.10;38.50;;;;;;1784433;80;21049;-10
2021/11/10 02:07:57;;;;;;;2.92;1.45;;;24.10;38.80;;;;;;1784389;80;21057;-10
2021/11/10 02:10:25;;;;;;;3.15;1.77;;;24.10;39.00;;;;;;1784367;80;21608;-10
2021/11/10 02:12:55;;;;;;;3.40;1.98;;;24.10;38.60;;;;;;1784468;80;21076;-10
2021/11/10 02:15:22;;;;;;;1.98;1.77;;;24.10;38.40;;;;;;1784014;80;21142;-10
2021/11/10 02:17:51;;;;;;;1.90;1.70;;;24.10;38.40;;;;;;1784377;80;21058;-10
2021/11/10 02:20:19;;;;;;;2.10;1.80;;;24.10;38.50;;;;;;1784364;80;21122;-10
2021/11/10 02:22:49;;;;;;;2.80;1.80;;;24.10;38.80;;;;;;1784361;80;21134;-10
2021/11/10 02:25:16;;;;;;;2.17;1.95;;;24.10;38.50;;;;;;1784227;80;21147;-10
2021/11/10 02:27:43;;;;;;;2.50;1.80;;;24.10;38.40;;;;;;1784349;79;21103;-10
2021/11/10 02:30:16;;;;;;;1.90;1.70;;;24.10;38.40;;;;;;1784407;80;21197;-10
2021/11/10 02:32:49;;;;;;;2.12;1.52;;;24.10;38.40;;;;;;1784360;80;21075;-10
2021/11/10 02:35:19;;;;;;;1.90;1.60;;;24.10;38.80;;;;;;1784339;80;21138;-10
2021/11/10 02:37:55;;;;;;;2.37;1.70;;;24.00;38.60;;;;;;1783819;79;21061;-10
2021/11/10 02:40:23;;;;;;;4.62;1.80;;;24.00;38.50;;;;;;1784419;80;21645;-10
2021/11/10 02:42:52;;;;;;;2.95;1.82;;;24.00;38.40;;;;;;1784376;80;21493;-10
2021/11/10 02:45:22;;;;;;;2.75;1.80;;;24.00;38.40;;;;;;1784330;79;21099;-10
2021/11/10 02:47:49;;;;;;;2.10;1.57;;;24.00;38.60;;;;;;1784349;80;21122;-11
2021/11/10 02:50:17;;;;;;;2.15;1.75;;;24.00;38.70;;;;;;1784468;80;21163;-11
2021/11/10 02:52:44;;;;;;;2.30;1.65;;;24.00;38.60;;;;;;1784344;80;21065;-11
2021/11/10 02:55:11;;;;;;;1.70;1.50;;;24.00;38.40;;;;;;1784374;80;21166;-11
2021/11/10 02:57:39;;;;;;;2.42;1.57;;;24.00;38.40;;;;;;1784427;80;21076;-11
2021/11/10 03:00:08;;;;;;;2.25;1.70;;;24.00;38.60;;;;;;1784381;80;21638;-11
2021/11/10 03:02:36;;;;;;;1.70;1.57;;;24.00;38.70;;;;;;1784349;80;21542;-11
2021/11/10 03:05:05;;;;;;;1.72;1.60;;;24.00;38.60;;;;;;1784428;80;21580;-11
2021/11/10 03:07:32;;;;;;;2.22;1.67;;;24.00;38.60;;;;;;1760536;80;21146;-11
2021/11/10 03:10:00;;;;;;;1.50;1.40;;;24.00;38.50;;;;;;1784418;80;21607;-10
2021/11/10 03:12:27;;;;;;;3.00;1.60;;;24.00;38.50;;;;;;1784373;80;21158;-11
2021/11/10 03:14:54;;;;;;;1.98;1.60;;;24.00;38.70;;;;;;1784363;80;21084;-11
2021/11/10 03:17:22;;;;;;;1.62;1.50;;;24.00;38.80;;;;;;1784386;80;21143;-11
2021/11/10 03:19:50;;;;;;;2.42;1.50;;;24.00;38.40;;;;;;1784434;80;21526;-11
2021/11/10 03:22:17;;;;;;;2.83;1.67;;;24.00;38.40;;;;;;1784393;80;21104;-11
2021/11/10 03:24:45;;;;;;;1.87;1.57;;;24.00;38.40;;;;;;1784385;80;21066;-11
2021/11/10 03:27:13;;;;;;;2.10;1.50;;;24.00;38.80;;;;;;1784420;79;21577;-11
2021/11/10 03:29:40;;;;;;;2.30;1.57;;;24.00;38.60;;;;;;1784328;80;21131;-11
2021/11/10 03:32:09;;;;;;;2.08;1.70;;;24.00;38.60;;;;;;1784349;80;21064;-11
2021/11/10 03:34:37;;;;;;;1.60;1.50;;;24.00;38.40;;;;;;1784366;80;21055;-11
2021/11/10 03:37:05;;;;;;;1.37;1.27;;;24.00;38.40;;;;;;1784336;80;21083;-11
2021/11/10 03:39:33;;;;;;;1.70;1.50;;;24.00;38.50;;;;;;1784338;80;21123;-11
2021/11/10 03:42:00;;;;;;;2.72;1.67;;;24.00;38.80;;;;;;1784321;80;21057;-11
2021/11/10 03:44:28;;;;;;;3.30;2.02;;;24.00;38.60;;;;;;1784209;78;21616;-11
2021/11/10 03:46:56;;;;;;;2.00;1.80;;;24.00;38.50;;;;;;1784319;80;21084;-10
2021/11/10 03:49:25;;;;;;;3.00;1.62;;;24.00;38.50;;;;;;1784317;80;21045;-11
2021/11/10 03:51:53;;;;;;;1.77;1.52;;;24.00;39.00;;;;;;1784398;80;21076;-11
2021/11/10 03:54:21;;;;;;;2.15;1.80;;;24.00;39.10;;;;;;1784277;80;21553;-11
2021/11/10 03:56:49;;;;;;;2.10;1.70;;;24.00;38.90;;;;;;1784265;80;21065;-11
2021/11/10 03:59:16;;;;;;;2.33;1.65;;;24.00;38.80;;;;;;1784309;80;21181;-11
2021/11/10 04:01:45;;;;;;;2.55;1.50;;;24.00;38.60;;;;;;1784266;80;21150;-11
2021/11/10 04:04:12;;;;;;;2.22;1.70;;;24.00;39.10;;;;;;1784289;80;21131;-11
2021/11/10 04:06:40;;;;;;;1.67;1.50;;;24.00;39.20;;;;;;1784210;80;21072;-11
2021/11/10 04:09:07;;;;;;;1.98;1.52;;;24.00;38.90;;;;;;1784252;80;21099;-11
2021/11/10 04:11:35;;;;;;;2.20;1.72;;;24.00;39.00;;;;;;1784208;80;21142;-11
2021/11/10 04:14:04;;;;;;;1.90;1.65;;;24.00;39.00;;;;;;1784344;80;21620;-11
2021/11/10 04:16:32;;;;;;;2.20;1.80;;;24.00;38.80;;;;;;1784351;80;21155;-11
2021/11/10 04:18:59;;;;;;;2.77;1.80;;;24.00;39.10;;;;;;1784291;80;21064;-11
2021/11/10 04:21:27;;;;;;;2.37;1.80;;;24.10;39.00;;;;;;1784287;80;21503;-11
2021/11/10 04:23:55;;;;;;;1.98;1.57;;;24.00;39.10;;;;;;1784310;80;21615;-11
2021/11/10 04:26:23;;;;;;;2.10;1.60;;;24.00;38.60;;;;;;1784251;79;21667;-11
2021/11/10 04:28:51;;;;;;;1.62;1.52;;;24.10;38.60;;;;;;1784305;80;21145;-11
2021/11/10 04:31:19;;;;;;;2.35;1.80;;;24.10;38.90;;;;;;1784321;80;21567;-11
2021/11/10 04:33:47;;;;;;;2.27;1.87;;;24.00;39.00;;;;;;1784474;80;21170;-11
2021/11/10 04:36:15;;;;;;;2.35;1.75;;;24.00;38.70;;;;;;1784438;80;21100;-11
2021/11/10 04:38:42;;;;;;;2.10;1.90;;;24.00;38.70;;;;;;1784406;80;21195;-11
2021/11/10 04:41:10;;;;;;;2.72;1.87;;;24.00;38.50;;;;;;1784480;80;21553;-11
2021/11/10 04:43:38;;;;;;;1.80;1.60;;;24.00;38.90;;;;;;1784472;80;21568;-11
2021/11/10 04:46:14;;;;;;;2.35;1.90;;;24.00;39.00;;;;;;1784565;78;21600;-11
2021/11/10 04:48:38;;;;;;;2.12;1.90;;;24.00;38.70;;;;;;1783552;80;21068;-11
2021/11/10 04:51:08;;;;;;;2.37;2.08;;;24.00;38.60;;;;;;1784405;80;21100;-11
2021/11/10 04:53:36;;;;;;;2.00;1.65;;;24.00;38.50;;;;;;1784488;80;21025;-11
2021/11/10 04:56:04;;;;;;;3.83;2.12;;;24.00;38.90;;;;;;1784502;80;21522;-11
2021/11/10 04:58:32;;;;;;;3.20;2.45;;;24.00;38.80;;;;;;1784438;80;21604;-11
2021/11/10 05:01:00;;;;;;;2.58;2.15;;;24.00;38.50;;;;;;1784444;80;21596;-10
2021/11/10 05:03:27;;;;;;;2.77;2.20;;;24.00;38.30;;;;;;1784445;80;21162;-11
2021/11/10 05:05:55;;;;;;;2.33;2.00;;;24.00;38.50;;;;;;1784404;80;21089;-11
2021/11/10 05:08:22;;;;;;;2.42;1.60;;;24.00;39.10;;;;;;1784419;80;21115;-11
2021/11/10 05:10:49;;;;;;;2.92;2.40;;;24.00;38.60;;;;;;1784504;80;21534;-11
2021/11/10 05:13:17;;;;;;;2.27;2.08;;;24.00;38.30;;;;;;1784381;80;21025;-11
2021/11/10 05:15:46;;;;;;;2.58;2.25;;;24.00;38.20;;;;;;1784429;80;21068;-11
2021/11/10 05:18:14;;;;;;;2.90;2.12;;;24.00;38.10;;;;;;1784437;80;21514;-10
2021/11/10 05:20:44;;;;;;;2.40;2.20;;;24.00;38.30;;;;;;1784472;80;21533;-11
2021/11/10 05:23:11;;;;;;;3.42;2.42;;;24.00;38.40;;;;;;1784298;80;21151;-11
2021/11/10 05:25:38;;;;;;;2.27;2.00;;;24.00;38.20;;;;;;1784406;80;21072;-11
2021/11/10 05:28:06;;;;;;;3.67;2.52;;;24.00;38.20;;;;;;1784346;79;21538;-11
2021/11/10 05:30:36;;;;;;;2.50;2.30;;;24.00;38.10;;;;;;1784428;80;21565;-11
2021/11/10 05:33:04;;;;;;;2.37;2.10;;;24.00;38.20;;;;;;1784351;80;21116;-11
2021/11/10 05:35:32;;;;;;;2.33;2.10;;;23.90;38.50;;;;;;1784492;80;21088;-10
2021/11/10 05:37:59;;;;;;;2.52;2.33;;;23.90;38.50;;;;;;1784394;80;21154;-10
2021/11/10 05:40:27;;;;;;;2.58;2.37;;;23.90;38.20;;;;;;1784409;80;21052;-11
2021/11/10 05:42:54;;;;;;;2.35;2.15;;;24.00;38.30;;;;;;1784357;80;21501;-11
2021/11/10 05:45:22;;;;;;;2.10;1.87;;;23.90;38.30;;;;;;1787167;78;21103;-11
2021/11/10 05:47:49;;;;;;;2.70;2.05;;;23.90;38.70;;;;;;1796035;80;21534;-11
2021/11/10 05:50:17;;;;;;;3.60;2.30;;;23.90;38.80;;;;;;1796113;80;21529;-11
2021/11/10 05:52:45;;;;;;;2.70;2.47;;;24.00;38.50;;;;;;1796121;80;21091;-11
2021/11/10 05:55:15;;;;;;;3.50;2.70;;;24.00;38.50;;;;;;1796096;80;21139;-11
2021/11/10 05:57:43;;;;;;;2.52;1.98;;;23.90;38.40;;;;;;1795932;80;21383;-10
2021/11/10 06:00:12;;;;;;;2.55;2.02;;;23.90;38.70;;;;;;1796191;80;21594;-11
2021/11/10 06:02:41;;;;;;;2.80;2.50;;;24.00;38.80;;;;;;1796080;80;21045;-11
2021/11/10 06:05:10;;;;;;;3.52;2.62;;;24.00;38.60;;;;;;1796103;80;21489;-11
2021/11/10 06:07:37;;;;;;;2.65;2.30;;;24.00;38.50;;;;;;1796111;80;21537;-11
2021/11/10 06:10:05;;;;;;;2.77;2.17;;;24.00;38.50;;;;;;1796149;80;21537;-11
2021/11/10 06:12:33;;;;;;;3.45;2.40;;;24.00;38.70;;;;;;1796057;80;21063;-11
2021/11/10 06:15:00;;;;;;;2.85;2.42;;;24.00;38.70;;;;;;1796018;80;21092;-11
2021/11/10 06:17:28;;;;;;;2.90;2.45;;;24.00;38.60;;;;;;1796124;80;21554;-11
2021/11/10 06:19:55;;;;;;;2.70;2.50;;;24.00;38.40;;;;;;1796050;80;21485;-11
2021/11/10 06:22:23;;;;;;;2.60;2.40;;;24.00;38.40;;;;;;1796044;80;21564;-11
2021/11/10 06:24:50;;;;;;;2.80;2.37;;;24.00;38.60;;;;;;1796024;80;21087;-11
2021/11/10 06:27:18;;;;;;;2.50;2.30;;;24.00;38.80;;;;;;1795974;79;21666;-11
2021/11/10 06:29:45;;;;;;;2.77;2.40;;;24.00;38.60;;;;;;1796085;80;21548;-11
2021/11/10 06:32:13;;;;;;;3.75;2.70;;;24.00;38.40;;;;;;1796082;80;21595;-11
2021/11/10 06:34:40;;;;;;;3.00;2.40;;;24.00;38.50;;;;;;1796024;80;21560;-11
2021/11/10 06:37:08;;;;;;;2.35;2.12;;;24.00;38.80;;;;;;1796020;80;21083;-11
2021/11/10 06:39:36;;;;;;;3.70;2.50;;;24.00;38.90;;;;;;1796024;80;21087;-11
2021/11/10 06:42:04;;;;;;;3.37;2.65;;;24.00;38.60;;;;;;1795975;80;21580;-11
2021/11/10 06:44:31;;;;;;;3.02;2.65;;;24.00;38.50;;;;;;1796002;80;21079;-11
2021/11/10 06:47:02;;;;;;;2.85;2.52;;;24.00;38.40;;;;;;1796108;78;21541;-11
2021/11/10 06:49:30;;;;;;;3.47;2.72;;;24.00;38.90;;;;;;1796264;80;21559;-11
2021/11/10 06:51:58;;;;;;;3.00;2.62;;;23.90;39.00;;;;;;1796041;80;21094;-11
2021/11/10 06:54:26;;;;;;;3.25;2.67;;;24.00;38.90;;;;;;1796002;80;21618;-11
2021/11/10 06:56:54;;;;;;;3.65;2.58;;;24.00;38.60;;;;;;1795908;80;21189;-11
2021/11/10 06:59:21;;;;;;;2.90;2.58;;;24.00;38.60;;;;;;1796003;80;21560;-11
2021/11/10 07:01:49;;;;;;;2.58;2.12;;;24.00;38.70;;;;;;1795998;80;21032;-11
2021/11/10 07:04:16;;;;;;;2.55;2.35;;;24.00;38.90;;;;;;1796005;80;21088;-11
2021/11/10 07:06:43;;;;;;;3.12;2.47;;;24.00;38.70;;;;;;1796023;80;21083;-11
2021/11/10 07:09:11;;;;;;;3.12;2.80;;;24.00;38.50;;;;;;1795945;80;21072;-11
2021/11/10 07:11:38;;;;;;;2.85;2.60;;;24.00;38.60;;;;;;1795960;80;21067;-11
2021/11/10 07:14:07;;;;;;;2.85;2.55;;;24.00;38.50;;;;;;1796091;80;21532;-10
2021/11/10 07:16:35;;;;;;;3.85;2.47;;;24.00;38.70;;;;;;1795913;80;21636;-11
2021/11/10 07:19:03;;;;;;;2.77;2.58;;;24.00;38.80;;;;;;1795799;80;21496;-11
2021/11/10 07:21:31;;;;;;;2.92;2.60;;;24.00;38.50;;;;;;1795874;80;21095;-10
2021/11/10 07:24:01;;;;;;;3.08;2.77;;;24.00;38.40;;;;;;1795940;80;21619;-11
2021/11/10 07:26:29;;;;;;;2.95;2.52;;;24.00;38.40;;;;;;1796144;79;21604;-11
2021/11/10 07:28:57;;;;;;;2.70;2.10;;;24.00;38.90;;;;;;1795860;80;21060;-10
2021/11/10 07:31:24;;;;;;;3.70;2.62;;;23.90;38.90;;;;;;1795946;80;21533;-11
2021/11/10 07:33:52;;;;;;;3.42;2.80;;;24.00;38.60;;;;;;1795901;80;21052;-11
2021/11/10 07:36:19;;;;;;;2.62;2.40;;;24.00;38.50;;;;;;1795882;80;21146;-11
2021/11/10 07:38:47;;;;;;;3.40;2.45;;;24.00;38.50;;;;;;1795863;80;21150;-11
2021/11/10 07:41:20;;;;;;;3.22;2.37;;;24.00;39.00;;;;;;1795928;79;21154;-11
2021/11/10 07:43:44;;;;;;;2.85;2.55;;;24.00;38.90;;;;;;1794354;80;21103;-11
2021/11/10 07:48:41;;;;;;;3.70;2.83;;;24.00;38.60;;;;;;1784112;80;21088;-11
2021/11/10 07:51:09;;;;;;;3.85;2.65;;;24.00;38.60;;;;;;1784130;80;21138;-11
2021/11/10 07:53:37;;;;;;;2.37;2.15;;;24.00;38.60;;;;;;1784182;80;21080;-11
2021/11/10 07:56:04;;;;;;;2.95;2.45;;;24.00;38.90;;;;;;1784095;80;21057;-11
2021/11/10 07:58:32;;;;;;;3.80;2.75;;;24.00;38.60;;;;;;1784181;80;21146;-11
2021/11/10 08:01:00;;;;;;;3.65;2.52;;;24.00;38.50;;;;;;1784178;80;21529;-11
2021/11/10 08:03:27;;;;;;;2.72;2.42;;;24.00;38.60;;;;;;1784103;80;21147;-11
2021/11/10 08:05:56;;;;;;;3.20;2.55;;;24.00;39.00;;;;;;1784151;80;21076;-11
2021/11/10 08:08:25;;;;;;;2.90;2.27;;;24.00;38.60;;;;;;1784306;80;21120;-11
2021/11/10 08:10:54;;;;;;;3.52;2.90;;;24.00;38.80;;;;;;1784276;80;21553;-11
2021/11/10 08:13:22;;;;;;;3.70;2.65;;;24.00;38.50;;;;;;1784385;80;21556;-11
2021/11/10 08:15:53;;;;;;;3.25;2.50;;;24.00;38.50;;;;;;1784294;80;21537;-11
2021/11/10 08:18:21;;;;;;;3.45;2.30;;;24.00;38.50;;;;;;1784400;80;21044;-11
2021/11/10 08:20:48;;;;;;;3.55;2.35;;;23.90;38.90;;;;;;1784533;80;21104;-11
2021/11/10 08:23:20;;;;;;;2.85;2.58;;;24.00;39.00;;;;;;1784222;80;21081;-11
2021/11/10 08:25:45;;;;;;;4.17;2.72;;;23.90;38.60;;;;;;1783275;80;21143;-11
2021/11/10 08:28:12;;;;;;;3.40;2.62;;;23.90;38.50;;;;;;1784337;79;21582;-11
2021/11/10 08:30:40;;;;;;;3.42;2.30;;;24.00;38.60;;;;;;1784246;80;21546;-11
2021/11/10 08:33:08;;;;;;;3.05;2.30;;;23.90;38.90;;;;;;1784426;80;21548;-10
2021/11/10 08:35:35;;;;;;;3.37;2.72;;;24.00;39.10;;;;;;1784246;80;21497;-11
2021/11/10 08:38:03;;;;;;;3.08;2.67;;;24.00;38.80;;;;;;1784319;80;21083;-10
2021/11/10 08:40:31;;;;;;;3.50;2.65;;;24.00;38.60;;;;;;1784258;80;21072;-11
2021/11/10 08:42:58;;;;;;;3.15;2.20;;;24.00;38.80;;;;;;1784230;80;21158;-11
2021/11/10 08:45:29;;;;;;;2.92;2.25;;;24.00;39.20;;;;;;1784270;80;21091;-11
2021/11/10 08:47:58;;;;;;;3.95;2.83;;;24.00;39.10;;;;;;1810494;79;21105;-11
2021/11/10 08:50:27;;;;;;;2.90;2.67;;;24.00;38.80;;;;;;1821433;79;21077;-11
2021/11/10 08:52:55;;;;;;;4.65;2.75;;;24.00;38.70;;;;;;1821360;79;21389;-11
2021/11/10 08:55:23;;;;;;;3.22;2.52;;;24.00;38.80;;;;;;1821184;79;21547;-11
2021/11/10 08:57:50;;;;;;;2.77;2.10;;;24.00;39.00;;;;;;1821128;79;21081;-11
2021/11/10 09:00:21;;;;;;;3.22;2.65;;;24.00;38.90;;;;;;1821190;79;21526;-11
2021/11/10 09:02:48;;;;;;;3.37;2.67;;;24.00;38.60;;;;;;1821172;79;21022;-11
2021/11/10 09:05:16;;;;;;;3.17;2.77;;;24.10;38.80;;;;;;1821137;79;21539;-11
2021/11/10 09:07:44;;;;;;;3.90;2.62;;;24.00;38.60;;;;;;1821178;79;21651;-11
2021/11/10 09:10:12;;;;;;;2.52;2.30;;;24.00;38.70;;;;;;1821159;79;21073;-11
2021/11/10 09:12:40;;;;;;;2.58;2.30;;;24.00;39.00;;;;;;1821127;79;21061;-10
2021/11/10 09:15:12;;;;;;;2.80;2.50;;;24.00;38.70;;;;;;1821184;79;21518;-11
2021/11/10 09:17:41;;;;;;;3.12;2.58;;;24.00;38.60;;;;;;1821233;79;21136;-11
2021/11/10 09:20:14;;;;;;;2.60;2.00;;;24.00;38.60;;;;;;1821166;79;21558;-10
2021/11/10 09:22:41;;;;;;;2.95;2.52;;;24.00;39.00;;;;;;1821115;79;21070;-11
2021/11/10 09:25:10;;;;;;;2.85;2.42;;;24.00;39.00;;;;;;1821109;79;21085;-11
2021/11/10 09:27:39;;;;;;;2.87;2.58;;;24.00;38.80;;;;;;1821092;77;21605;-11
2021/11/10 09:30:09;;;;;;;2.62;2.40;;;24.00;38.70;;;;;;1821193;79;21089;-11
2021/11/10 09:32:38;;;;;;;2.80;2.50;;;24.00;38.70;;;;;;1821141;79;21144;-10
2021/11/10 09:35:07;;;;;;;2.98;2.45;;;24.00;39.20;;;;;;1821174;79;21148;-11
2021/11/10 09:37:36;;;;;;;3.17;2.40;;;24.00;39.10;;;;;;1821193;79;21058;-11
2021/11/10 09:40:05;;;;;;;3.02;2.58;;;24.00;39.00;;;;;;1821312;79;21555;-11
2021/11/10 09:42:35;;;;;;;3.83;2.65;;;24.00;38.60;;;;;;1821131;79;21082;-10
2021/11/10 09:45:04;;;;;;;3.70;2.87;;;24.00;38.90;;;;;;1821188;79;21531;-10
2021/11/10 09:47:31;;;;;;;4.40;2.60;;;24.00;38.90;;;;;;1808003;79;21119;-11
2021/11/10 09:49:59;;;;;;;2.95;2.65;;;24.00;39.10;;;;;;1784199;80;21580;-11
2021/11/10 09:52:27;;;;;;;2.72;2.52;;;24.00;38.80;;;;;;1784159;80;21154;-11
2021/11/10 09:54:54;;;;;;;3.33;2.67;;;24.00;38.90;;;;;;1784214;80;21104;-11
2021/11/10 09:57:22;;;;;;;3.42;2.83;;;24.00;38.60;;;;;;1784249;80;21589;-11
2021/11/10 09:59:50;;;;;;;3.22;2.45;;;24.10;38.60;;;;;;1784256;80;21099;-11
2021/11/10 10:02:17;;;;;;;3.22;2.58;;;24.10;38.70;;;;;;1784181;80;21546;-11
2021/11/10 10:04:45;;;;;;;4.90;3.22;;;24.00;38.80;;;;;;1784215;80;21069;-11
2021/11/10 10:07:12;;;;;;;3.65;2.83;;;24.10;38.70;;;;;;1784214;80;21092;-11
2021/11/10 10:09:40;;;;;;;3.17;2.80;;;24.10;38.50;;;;;;1784271;80;21607;-11
2021/11/10 10:12:09;;;;;;;2.67;2.40;;;24.10;38.40;;;;;;1784223;80;21557;-11
2021/11/10 10:14:36;;;;;;;2.15;1.92;;;24.00;38.80;;;;;;1784247;80;21083;-11
2021/11/10 10:17:07;;;;;;;3.45;2.40;;;24.00;38.90;;;;;;1784325;80;21619;-11
2021/11/10 10:19:41;;;;;;;3.50;2.67;;;24.00;38.50;;;;;;1760382;80;21580;-11
2021/11/10 10:22:19;;;;;;;3.35;2.33;;;24.00;38.40;;;;;;1784220;80;21553;-10
2021/11/10 10:24:51;;;;;;;3.67;2.15;;;24.00;38.40;;;;;;1784294;80;21056;-10
2021/11/10 10:27:29;;;;;;;2.85;2.20;;;24.00;38.60;;;;;;1784355;79;21116;-10
2021/11/10 10:30:26;;;;;;;3.22;2.67;;;24.00;38.80;;;;;;1784127;80;21096;-10
2021/11/10 10:32:56;;;;;;;4.12;2.98;;;24.00;38.60;;;;;;1784260;80;21594;-12
2021/11/10 10:35:28;;;;;;;4.85;3.00;;;23.90;39.00;;;;;;1783115;80;21091;-9
2021/11/10 10:37:56;;;;;;;2.60;2.15;;;23.90;38.50;;;;;;1784245;80;21057;-10
2021/11/10 10:40:23;;;;;;;2.85;2.20;;;24.00;38.90;;;;;;1784241;80;21540;-10
2021/11/10 10:42:51;;;;;;;2.55;2.30;;;24.00;38.80;;;;;;1784324;80;21142;-10
2021/11/10 10:45:34;;;;;;;3.00;2.70;;;24.00;38.80;;;;;;1784270;80;21091;-10
2021/11/10 10:48:13;;;;;;;3.10;2.27;;;24.00;38.60;;;;;;1788542;78;21103;-11
2021/11/10 10:50:55;;;;;;;2.60;2.30;;;24.00;38.70;;;;;;1795892;80;21166;-10
2021/11/10 10:53:32;;;;;;;;;;;24.00;38.80;;;;;;1798685;80;21052;-10
2021/11/10 10:56:00;;;;;;;2.65;2.12;;;23.90;38.60;;;;;;1796007;80;20150;-10
2021/11/10 10:58:38;;;;;;;3.20;2.50;;;23.80;39.00;;;;;;1795932;80;21075;-10
2021/11/10 11:01:20;;;;;;;3.83;2.80;;;23.90;38.80;;;;;;1795843;80;21044;-10
2021/11/10 11:03:48;;;;;;;;;;;24.00;38.90;;;;;;1784825;80;21141;-10
2021/11/10 11:06:27;;;;;;;2.37;2.17;;;23.80;39.10;;;;;;1795916;80;20150;-10
2021/11/10 11:08:58;;;;;;;2.90;2.30;;;23.80;39.30;;;;;;1795990;80;21131;-10
2021/11/10 11:11:39;;;;;;;2.90;2.60;;;23.90;39.00;;;;;;1796203;80;21106;-10
2021/11/10 11:14:00;;;;;;;3.50;2.50;;;24.00;38.80;;;;;;1791324;80;21157;-10
2021/11/10 11:16:35;;;;;;;2.22;1.95;;;24.00;38.90;;;;;;1795954;80;21084;-10
2021/11/10 11:19:17;;;;;;;2.72;1.95;;;24.00;39.30;;;;;;1795931;80;21141;-10
2021/11/10 11:21:57;;;;;;;3.27;2.40;;;24.00;39.20;;;;;;1796010;80;21141;-10
2021/11/10 11:24:30;;;;;;;4.60;2.77;;;24.00;39.00;;;;;;1795814;80;21056;-10
2021/11/10 11:27:01;;;;;;;2.50;2.10;;;24.00;39.00;;;;;;1795837;79;21126;-10
2021/11/10 11:29:28;;;;;;;2.27;2.08;;;24.00;39.30;;;;;;1786735;80;21056;-10
2021/11/10 11:31:56;;;;;;;3.50;2.55;;;24.00;39.30;;;;;;1795895;80;21088;-10
2021/11/10 11:34:24;;;;;;;2.65;2.20;;;24.10;39.00;;;;;;1795906;80;21108;-10
2021/11/10 11:36:54;;;;;;;2.35;2.15;;;24.10;38.70;;;;;;1795760;80;21087;-10
2021/11/10 11:39:23;;;;;;;2.33;2.00;;;24.10;38.50;;;;;;1795726;79;21489;-10
2021/11/10 11:41:52;;;;;;;2.55;2.12;;;24.10;38.40;;;;;;1795856;80;21088;-10
2021/11/10 11:44:21;;;;;;;3.67;2.37;;;24.10;38.50;;;;;;1796045;80;21622;-10
2021/11/10 11:46:48;;;;;;;2.72;2.10;;;24.10;38.60;;;;;;1796004;80;21076;-10
2021/11/10 11:49:16;;;;;;;2.58;2.12;;;24.10;38.50;;;;;;1787627;78;21174;-10
2021/11/10 11:51:45;;;;;;;3.00;2.30;;;24.10;38.40;;;;;;1784292;80;21139;-10
2021/11/10 11:54:13;;;;;;;3.08;2.20;;;24.20;38.50;;;;;;1784312;80;21549;-11
2021/11/10 11:56:41;;;;;;;2.98;2.30;;;24.10;38.80;;;;;;1784324;80;21088;-11
2021/11/10 11:59:08;;;;;;;2.67;2.08;;;24.10;39.00;;;;;;1784332;80;21068;-11
2021/11/10 12:01:37;;;;;;;3.35;2.30;;;24.10;38.70;;;;;;1784385;80;21514;-11
2021/11/10 12:04:07;;;;;;;4.25;2.47;;;24.20;38.60;;;;;;1784242;80;21077;-11
2021/11/10 12:06:51;;;;;;;2.47;2.00;;;24.20;38.50;;;;;;1760701;80;21174;-11
2021/11/10 12:09:24;;;;;;;2.98;2.20;;;24.10;38.90;;;;;;1784301;80;21069;-11
2021/11/10 12:11:55;;;;;;;3.37;2.30;;;24.10;39.10;;;;;;1784319;80;21154;-11
2021/11/10 12:14:29;;;;;;;2.70;2.20;;;24.10;38.80;;;;;;1784454;80;21092;-11
2021/11/10 12:17:08;;;;;;;2.90;2.25;;;24.10;38.70;;;;;;1784329;80;21146;-11
2021/11/10 12:19:41;;;;;;;2.67;2.45;;;24.10;38.80;;;;;;1784011;80;21092;-11
2021/11/10 12:22:11;;;;;;;3.02;2.37;;;24.10;38.90;;;;;;1784312;80;21136;-11
2021/11/10 12:24:44;;;;;;;3.37;2.70;;;24.10;39.00;;;;;;1784267;80;21562;-11
2021/11/10 12:27:30;;;;;;;2.67;2.25;;;24.10;38.70;;;;;;1784215;79;21183;-11
2021/11/10 12:30:00;;;;;;;3.55;2.58;;;24.10;38.70;;;;;;1784325;80;21151;-11
2021/11/10 12:32:37;;;;;;;2.90;2.50;;;24.10;38.80;;;;;;1780743;80;21060;-11
2021/11/10 12:35:06;;;;;;;2.83;2.22;;;24.10;39.10;;;;;;1784179;80;21182;-11
2021/11/10 12:37:36;;;;;;;3.33;2.42;;;24.10;39.30;;;;;;1784226;80;21409;-9
2021/11/10 12:40:13;;;;;;;3.62;2.60;;;24.10;39.00;;;;;;1784185;80;21151;-11
2021/11/10 12:42:47;;;;;;;3.08;2.72;;;24.10;38.90;;;;;;1784252;80;21186;-11
2021/11/10 12:45:19;;;;;;;2.70;2.27;;;24.10;38.80;;;;;;1784420;80;21143;-11
2021/11/10 12:47:47;;;;;;;;;;;24.10;39.60;;;;;;1786873;80;21083;-11
2021/11/10 12:50:23;;;;;;;3.30;2.65;;;24.00;39.20;;;;;;1784199;80;20481;-11
2021/11/10 12:52:51;;;;;;;3.62;2.70;;;24.00;39.10;;;;;;1784296;80;21065;-11
2021/11/10 12:55:21;;;;;;;3.60;2.87;;;24.10;39.00;;;;;;1784322;80;21154;-11
2021/11/10 12:57:49;;;;;;;3.55;2.37;;;24.10;39.00;;;;;;1784241;80;21064;-11
2021/11/10 13:00:18;;;;;;;4.03;2.83;;;24.10;39.20;;;;;;1784194;80;21080;-11